createdAt,value
2022-12-19T00:01:36.240Z,99075.38
2022-12-19T00:04:08.265Z,99057.59
2022-12-19T00:06:37.431Z,99063.31
2022-12-19T00:09:05.500Z,99061.06
2022-12-19T00:11:33.045Z,99061.91
2022-12-19T00:14:00.534Z,99053.16
2022-12-19T00:16:29.304Z,99054.47
2022-12-19T00:18:59.148Z,99048.84
2022-12-19T00:21:29.235Z,99060.91
2022-12-19T00:23:56.763Z,99055.53
2022-12-19T00:26:26.546Z,99043.22
2022-12-19T00:28:55.644Z,99059.81
2022-12-19T00:31:26.072Z,99045.72
2022-12-19T00:33:53.354Z,99048.91
2022-12-19T00:36:25.899Z,99045.56
2022-12-19T00:38:54.193Z,99043.63
2022-12-19T00:41:23.522Z,99039.84
2022-12-19T00:43:58.197Z,99028.00
2022-12-19T00:46:26.401Z,99026.50
2022-12-19T00:48:53.858Z,99018.50
2022-12-19T00:51:23.389Z,99028.63
2022-12-19T00:53:51.087Z,99021.06
2022-12-19T00:56:21.268Z,99009.41
2022-12-19T00:58:49.008Z,99018.97
2022-12-19T01:01:21.883Z,99022.38
2022-12-19T01:04:25.902Z,99023.72
2022-12-19T01:06:36.357Z,99025.75
2022-12-19T01:09:04.234Z,99018.59
2022-12-19T01:11:50.271Z,99006.50
2022-12-19T01:14:22.512Z,99003.38
2022-12-19T01:16:51.103Z,98992.13
2022-12-19T01:19:18.892Z,98993.78
2022-12-19T01:21:46.054Z,98993.38
2022-12-19T01:24:13.660Z,98995.56
2022-12-19T01:26:42.971Z,98997.81
2022-12-19T01:29:10.180Z,99003.88
2022-12-19T01:31:37.285Z,99001.97
2022-12-19T01:34:04.352Z,98993.13
2022-12-19T01:36:32.595Z,98997.34
2022-12-19T01:38:59.620Z,98988.25
2022-12-19T01:41:26.735Z,98990.94
2022-12-19T01:44:02.521Z,98992.47
2022-12-19T01:46:37.239Z,99000.59
2022-12-19T01:49:05.656Z,98994.44
2022-12-19T01:51:39.539Z,99003.69
2022-12-19T01:54:12.498Z,98994.13
2022-12-19T01:56:42.653Z,98992.00
2022-12-19T01:59:14.681Z,98981.84
2022-12-19T02:01:50.854Z,98978.34
2022-12-19T02:04:19.762Z,99000.06
2022-12-19T02:06:47.360Z,98973.97
2022-12-19T02:09:14.526Z,98973.28
2022-12-19T02:11:42.067Z,98968.75
2022-12-19T02:14:09.181Z,98970.47
2022-12-19T02:16:48.271Z,98977.34
2022-12-19T02:19:37.806Z,98965.94
2022-12-19T02:22:28.727Z,98971.28
2022-12-19T02:25:23.278Z,98980.03
2022-12-19T02:28:11.633Z,98973.84
2022-12-19T02:30:46.644Z,98970.34
2022-12-19T02:33:22.935Z,98974.88
2022-12-19T02:36:07.366Z,98991.63
2022-12-19T02:38:42.180Z,98977.84
2022-12-19T02:41:14.978Z,98990.13
2022-12-19T02:43:44.963Z,99001.97
2022-12-19T02:46:15.756Z,98993.50
2022-12-19T02:48:43.352Z,98998.47
2022-12-19T02:51:10.587Z,98999.63
2022-12-19T02:53:38.415Z,98989.22
2022-12-19T02:56:33.764Z,98989.22
2022-12-19T02:59:35.514Z,99002.22
2022-12-19T03:02:39.905Z,99003.06
2022-12-19T03:05:16.947Z,99004.91
2022-12-19T03:07:47.901Z,99011.53
2022-12-19T03:10:46.746Z,99009.94
2022-12-19T03:13:18.692Z,99016.78
2022-12-19T03:15:46.222Z,99019.09
2022-12-19T03:18:13.576Z,99023.03
2022-12-19T03:21:02.558Z,99030.75
2022-12-19T03:23:30.281Z,99018.00
2022-12-19T03:26:07.625Z,99031.69
2022-12-19T03:28:47.720Z,99031.50
2022-12-19T03:31:17.349Z,99019.06
2022-12-19T03:33:46.684Z,99014.56
2022-12-19T03:36:17.473Z,99019.25
2022-12-19T03:38:45.589Z,99008.94
2022-12-19T03:41:14.476Z,99004.72
2022-12-19T03:43:43.449Z,99009.69
2022-12-19T03:46:24.338Z,99004.25
2022-12-19T03:48:52.969Z,99006.59
2022-12-19T03:51:19.987Z,98998.97
2022-12-19T03:54:20.911Z,98994.00
2022-12-19T03:57:10.713Z,98994.84
2022-12-19T03:59:49.853Z,98986.66
2022-12-19T04:02:18.227Z,98999.66
2022-12-19T04:04:57.336Z,98989.66
2022-12-19T04:07:24.629Z,98989.69
2022-12-19T04:09:52.404Z,98984.28
2022-12-19T04:12:22.647Z,98985.78
2022-12-19T04:14:50.101Z,98975.88
2022-12-19T04:17:35.944Z,98982.00
2022-12-19T04:20:08.949Z,98981.59
2022-12-19T04:22:52.866Z,98983.13
2022-12-19T04:25:29.345Z,98988.19
2022-12-19T04:28:00.298Z,98991.19
2022-12-19T04:30:27.805Z,98984.34
2022-12-19T04:32:55.350Z,98981.72
2022-12-19T04:35:22.434Z,98986.25
2022-12-19T04:37:49.569Z,98979.72
2022-12-19T04:40:16.719Z,98989.69
2022-12-19T04:42:43.910Z,98979.72
2022-12-19T04:45:11.137Z,98973.59
2022-12-19T04:47:38.402Z,98975.88
2022-12-19T04:50:06.031Z,98986.53
2022-12-19T04:52:33.214Z,98991.91
2022-12-19T04:55:00.265Z,98991.41
2022-12-19T04:57:31.203Z,98981.06
2022-12-19T04:59:58.278Z,98981.81
2022-12-19T05:02:26.318Z,98985.59
2022-12-19T05:04:53.580Z,98974.81
2022-12-19T05:07:20.694Z,98974.81
2022-12-19T05:09:47.761Z,98968.00
2022-12-19T05:12:14.854Z,98969.91
2022-12-19T05:14:41.927Z,98974.56
2022-12-19T05:17:09.039Z,98963.09
2022-12-19T05:19:36.321Z,98960.78
2022-12-19T05:22:04.119Z,98974.19
2022-12-19T05:24:31.879Z,98960.28
2022-12-19T05:26:59.284Z,98961.00
2022-12-19T05:29:26.412Z,98944.81
2022-12-19T05:31:53.644Z,98942.84
2022-12-19T05:34:21.016Z,98949.97
2022-12-19T05:36:48.131Z,98959.13
2022-12-19T05:39:15.338Z,98967.09
2022-12-19T05:41:46.302Z,98956.66
2022-12-19T05:44:16.689Z,98960.41
2022-12-19T05:46:44.371Z,98951.91
2022-12-19T05:49:11.540Z,98944.19
2022-12-19T05:51:38.735Z,98956.00
2022-12-19T05:54:05.823Z,98956.75
2022-12-19T05:56:32.896Z,98949.41
2022-12-19T05:59:00.049Z,98956.22
2022-12-19T06:01:28.468Z,98958.41
2022-12-19T06:03:55.802Z,98971.00
2022-12-19T06:06:26.011Z,98969.41
2022-12-19T06:08:57.900Z,98964.31
2022-12-19T06:11:25.859Z,98962.28
2022-12-19T06:13:53.143Z,98954.94
2022-12-19T06:16:21.958Z,98947.53
2022-12-19T06:18:49.143Z,98974.25
2022-12-19T06:21:21.289Z,98959.97
2022-12-19T06:23:48.628Z,98959.53
2022-12-19T06:26:19.805Z,98963.00
2022-12-19T06:28:48.317Z,98964.91
2022-12-19T06:31:15.898Z,98969.53
2022-12-19T06:33:43.164Z,98956.09
2022-12-19T06:36:14.029Z,98954.53
2022-12-19T06:38:41.155Z,98968.28
2022-12-19T06:41:28.072Z,98955.19
2022-12-19T06:44:02.746Z,98946.72
2022-12-19T06:46:29.993Z,98941.59
2022-12-19T06:48:57.217Z,98926.56
2022-12-19T06:51:24.279Z,98929.19
2022-12-19T06:53:51.522Z,98940.94
2022-12-19T06:56:18.995Z,98951.09
2022-12-19T06:58:46.503Z,98949.31
2022-12-19T07:01:36.638Z,98953.34
2022-12-19T07:04:03.975Z,98935.13
2022-12-19T07:06:31.051Z,98943.84
2022-12-19T07:08:58.081Z,98943.34
2022-12-19T07:11:25.132Z,98936.66
2022-12-19T07:13:52.175Z,98938.53
2022-12-19T07:16:20.339Z,98938.84
2022-12-19T07:18:47.504Z,98931.47
2022-12-19T07:21:14.544Z,98940.94
2022-12-19T07:23:41.790Z,98941.25
2022-12-19T07:26:08.930Z,98940.50
2022-12-19T07:28:36.668Z,98929.25
2022-12-19T07:31:04.216Z,98930.66
2022-12-19T07:33:31.288Z,98934.44
2022-12-19T07:35:58.335Z,98940.13
2022-12-19T07:38:25.502Z,98933.56
2022-12-19T07:40:52.544Z,98931.19
2022-12-19T07:43:19.623Z,98931.19
2022-12-19T07:45:46.807Z,98927.44
2022-12-19T07:48:13.892Z,98938.63
2022-12-19T07:50:41.667Z,98936.38
2022-12-19T07:53:08.762Z,98929.88
2022-12-19T07:55:35.832Z,98929.38
2022-12-19T07:58:02.951Z,98934.31
2022-12-19T08:00:31.402Z,98938.13
2022-12-19T08:02:59.445Z,98937.91
2022-12-19T08:05:26.671Z,98933.94
2022-12-19T08:07:54.245Z,98935.38
2022-12-19T08:10:22.785Z,98934.19
2022-12-19T08:12:49.880Z,98945.16
2022-12-19T08:15:17.034Z,98933.56
2022-12-19T08:17:44.267Z,98929.34
2022-12-19T08:20:11.750Z,98933.00
2022-12-19T08:22:39.283Z,98938.13
2022-12-19T08:25:07.573Z,98920.06
2022-12-19T08:27:34.940Z,98911.34
2022-12-19T08:30:02.481Z,98912.31
2022-12-19T08:32:29.793Z,98914.91
2022-12-19T08:34:57.024Z,98907.91
2022-12-19T08:37:24.072Z,98908.22
2022-12-19T08:39:51.866Z,98894.38
2022-12-19T08:42:19.057Z,98888.56
2022-12-19T08:44:46.243Z,98883.50
2022-12-19T08:47:13.442Z,98884.69
2022-12-19T08:49:40.585Z,98894.50
2022-12-19T08:52:07.718Z,98887.81
2022-12-19T08:54:34.809Z,98892.22
2022-12-19T08:57:02.137Z,98890.09
2022-12-19T08:59:31.724Z,98891.91
2022-12-19T09:02:00.532Z,98890.84
2022-12-19T09:05:27.779Z,98892.66
2022-12-19T09:07:16.153Z,98899.13
2022-12-19T09:09:44.962Z,98898.59
2022-12-19T09:12:13.901Z,98890.38
2022-12-19T09:14:40.957Z,98894.94
2022-12-19T09:17:08.087Z,98894.38
2022-12-19T09:19:35.192Z,98894.59
2022-12-19T09:22:02.278Z,98895.88
2022-12-19T09:24:29.414Z,98900.59
2022-12-19T09:26:56.447Z,98890.78
2022-12-19T09:29:24.342Z,98897.25
2022-12-19T09:31:55.286Z,98898.94
2022-12-19T09:34:36.256Z,98897.66
2022-12-19T09:37:07.953Z,98890.09
2022-12-19T09:39:36.068Z,98889.53
2022-12-19T09:42:40.624Z,98896.63
2022-12-19T09:45:19.469Z,98887.25
2022-12-19T09:48:00.835Z,98892.06
2022-12-19T09:50:39.912Z,98886.97
2022-12-19T09:53:23.119Z,98879.22
2022-12-19T09:55:52.534Z,98872.69
2022-12-19T09:58:38.053Z,98875.91
2022-12-19T10:01:16.189Z,98876.25
2022-12-19T10:04:03.772Z,98879.75
2022-12-19T10:07:12.513Z,98879.19
2022-12-19T10:12:20.712Z,98878.19
2022-12-19T10:12:43.380Z,98878.38
2022-12-19T10:15:26.020Z,98869.94
2022-12-19T10:18:01.624Z,98870.84
2022-12-19T10:20:32.862Z,98865.16
2022-12-19T10:23:15.315Z,98859.88
2022-12-19T10:25:48.147Z,98862.72
2022-12-19T10:28:28.874Z,98860.88
2022-12-19T10:31:22.938Z,98858.63
2022-12-19T10:33:58.393Z,98862.66
2022-12-19T10:36:48.761Z,98849.91
2022-12-19T10:39:18.333Z,98851.09
2022-12-19T10:41:46.987Z,98843.56
2022-12-19T10:44:14.438Z,98848.97
2022-12-19T10:46:49.719Z,98837.44
2022-12-19T10:49:22.232Z,98838.00
2022-12-19T10:51:55.332Z,98841.88
2022-12-19T10:54:30.593Z,98835.44
2022-12-19T10:57:18.929Z,98833.28
2022-12-19T11:00:01.363Z,98833.28
2022-12-19T11:02:44.911Z,98826.53
2022-12-19T11:05:23.810Z,98819.75
2022-12-19T11:08:06.156Z,98825.38
2022-12-19T11:14:41.504Z,98815.03
2022-12-19T11:18:00.545Z,98808.16
2022-12-19T11:23:18.838Z,98803.97
2022-12-19T11:29:25.302Z,98800.81
2022-12-19T11:29:31.326Z,98793.38
2022-12-19T11:30:06.172Z,98793.84
2022-12-19T11:30:46.428Z,98791.28
2022-12-19T11:33:55.075Z,98776.84
2022-12-19T11:36:36.615Z,98781.66
2022-12-19T11:39:04.528Z,98782.28
2022-12-19T11:41:37.472Z,98772.13
2022-12-19T11:44:10.729Z,98772.72
2022-12-19T11:46:42.543Z,98776.06
2022-12-19T11:49:30.464Z,98777.09
2022-12-19T11:52:29.564Z,98780.41
2022-12-19T11:55:21.566Z,98781.78
2022-12-19T11:57:48.887Z,98787.38
2022-12-19T12:00:20.524Z,98775.81
2022-12-19T12:03:22.911Z,98773.88
2022-12-19T12:05:51.777Z,98769.34
2022-12-19T12:10:35.953Z,98773.53
2022-12-19T12:17:48.808Z,98772.19
2022-12-19T12:23:40.327Z,98765.75
2022-12-19T12:31:09.855Z,98770.66
2022-12-19T12:31:18.960Z,98771.41
2022-12-19T12:31:19.068Z,98761.34
2022-12-19T12:31:40.920Z,98764.63
2022-12-19T12:31:43.270Z,98770.66
2022-12-19T12:35:51.345Z,98754.41
2022-12-19T12:39:03.758Z,98744.78
2022-12-19T12:42:09.138Z,98746.41
2022-12-19T12:44:44.783Z,98743.84
2022-12-19T12:47:18.870Z,98736.63
2022-12-19T12:49:49.035Z,98734.25
2022-12-19T12:52:27.460Z,98732.00
2022-12-19T12:54:55.587Z,98724.34
2022-12-19T12:57:29.912Z,98726.28
2022-12-19T13:00:23.550Z,98723.16
2022-12-19T13:03:13.327Z,98720.91
2022-12-19T13:05:52.213Z,98718.66
2022-12-19T13:08:34.575Z,98712.38
2022-12-19T13:11:51.128Z,98704.28
2022-12-19T13:14:37.079Z,98693.94
2022-12-19T13:17:12.129Z,98706.97
2022-12-19T13:20:12.198Z,98709.97
2022-12-19T13:22:41.931Z,98709.66
2022-12-19T13:25:48.394Z,98705.47
2022-12-19T13:28:39.397Z,98708.47
2022-12-19T13:31:17.813Z,98714.16
2022-12-19T13:33:51.776Z,98710.59
2022-12-19T13:39:52.443Z,98702.06
2022-12-19T13:39:57.818Z,98705.50
2022-12-19T13:42:43.597Z,98711.66
2022-12-19T13:45:29.125Z,98697.28
2022-12-19T13:47:57.643Z,98693.06
2022-12-19T13:50:33.345Z,98691.13
2022-12-19T13:53:00.545Z,98681.84
2022-12-19T13:55:30.890Z,98685.59
2022-12-19T13:57:58.251Z,98687.09
2022-12-19T14:00:36.851Z,98679.75
2022-12-19T14:03:04.169Z,98686.66
2022-12-19T14:06:15.880Z,98694.00
2022-12-19T14:08:23.732Z,98690.84
2022-12-19T14:11:40.550Z,98690.84
2022-12-19T14:14:15.306Z,98688.47
2022-12-19T14:16:46.670Z,98691.75
2022-12-19T14:19:22.426Z,98685.16
2022-12-19T14:22:11.069Z,98692.19
2022-12-19T14:24:36.732Z,98691.44
2022-12-19T14:28:21.384Z,98694.91
2022-12-19T14:30:30.826Z,98690.69
2022-12-19T14:33:44.325Z,98692.66
2022-12-19T14:36:11.520Z,98702.25
2022-12-19T14:39:20.813Z,98695.66
2022-12-19T14:41:54.612Z,98702.53
2022-12-19T14:54:09.039Z,98708.69
2022-12-19T14:54:10.025Z,98706.28
2022-12-19T14:54:29.542Z,98710.63
2022-12-19T14:54:41.913Z,98709.44
2022-12-19T14:59:03.858Z,98707.63
2022-12-19T15:01:33.574Z,98710.34
2022-12-19T15:04:50.817Z,98708.84
2022-12-19T15:07:07.036Z,98707.63
2022-12-19T15:11:03.348Z,98704.47
2022-12-19T15:14:47.123Z,98716.78
2022-12-19T15:15:50.444Z,98708.69
2022-12-19T15:18:32.678Z,98702.53
2022-12-19T15:21:02.459Z,98700.13
2022-12-19T15:23:29.936Z,98698.63
2022-12-19T15:26:06.025Z,98700.59
2022-12-19T15:28:47.294Z,98696.41
2022-12-19T15:31:38.814Z,98698.03
2022-12-19T15:39:51.766Z,98680.78
2022-12-19T15:42:23.697Z,98683.47
2022-12-19T15:44:52.255Z,98679.56
2022-12-19T15:47:23.260Z,98681.84
2022-12-19T15:49:50.421Z,98684.09
2022-12-19T15:52:18.893Z,98692.19
2022-12-19T15:54:48.356Z,98688.75
2022-12-19T15:57:22.509Z,98688.00
2022-12-19T15:59:49.863Z,98682.59
2022-12-19T16:05:03.905Z,98672.56
2022-12-19T16:07:31.822Z,98676.47
2022-12-19T16:09:58.885Z,98673.31
2022-12-19T16:12:32.091Z,98676.75
2022-12-19T16:15:01.077Z,98661.03
2022-12-19T16:17:31.496Z,98662.06
2022-12-19T16:19:59.064Z,98672.88
2022-12-19T16:22:27.912Z,98686.34
2022-12-19T16:24:55.422Z,98676.00
2022-12-19T16:27:25.890Z,98676.00
2022-12-19T16:29:54.113Z,98673.31
2022-12-19T16:32:25.705Z,98675.25
2022-12-19T16:34:53.446Z,98673.16
2022-12-19T16:37:20.518Z,98676.16
2022-12-19T16:39:47.569Z,98666.91
2022-12-19T16:42:16.175Z,98669.13
2022-12-19T16:44:47.084Z,98667.19
2022-12-19T16:47:16.747Z,98672.28
2022-12-19T16:49:44.673Z,98671.53
2022-12-19T16:52:12.043Z,98674.66
2022-12-19T16:54:39.456Z,98681.13
2022-12-19T16:57:18.830Z,98669.13
2022-12-19T16:59:46.333Z,98657.28
2022-12-19T17:02:36.496Z,98647.84
2022-12-19T17:05:04.386Z,98655.63
2022-12-19T17:07:31.482Z,98655.63
2022-12-19T17:09:58.550Z,98665.34
2022-12-19T17:12:26.735Z,98672.69
2022-12-19T17:14:53.917Z,98665.78
2022-12-19T17:17:21.998Z,98646.47
2022-12-19T17:19:49.054Z,98657.25
2022-12-19T17:22:18.397Z,98651.56
2022-12-19T17:24:46.669Z,98646.63
2022-12-19T17:27:14.330Z,98644.66
2022-12-19T17:29:41.391Z,98645.56
2022-12-19T17:32:19.845Z,98649.75
2022-12-19T17:34:50.537Z,98655.16
2022-12-19T17:37:17.728Z,98671.34
2022-12-19T17:39:44.891Z,98667.44
2022-12-19T17:42:23.570Z,98668.19
2022-12-19T17:44:51.328Z,98675.53
2022-12-19T17:47:19.750Z,98681.22
2022-12-19T17:49:47.207Z,98688.13
2022-12-19T17:52:16.625Z,98698.03
2022-12-19T17:54:43.782Z,98692.94
2022-12-19T17:57:15.451Z,98697.88
2022-12-19T17:59:44.120Z,98687.84
2022-12-19T18:02:20.175Z,98688.59
2022-12-19T18:04:47.503Z,98691.00
2022-12-19T18:07:15.954Z,98696.09
2022-12-19T18:09:43.479Z,98692.31
2022-12-19T18:12:10.679Z,98695.16
2022-12-19T18:14:37.806Z,98685.13
2022-12-19T18:17:05.439Z,98669.38
2022-12-19T18:19:34.312Z,98677.47
2022-12-19T18:22:01.766Z,98672.38
2022-12-19T18:24:28.872Z,98667.00
2022-12-19T18:26:56.233Z,98672.69
2022-12-19T18:29:23.876Z,98662.66
2022-12-19T18:31:51.493Z,98647.53
2022-12-19T18:34:22.145Z,98648.84
2022-12-19T18:36:49.574Z,98637.78
2022-12-19T18:39:23.263Z,98616.97
2022-12-19T18:41:51.372Z,98607.22
2022-12-19T18:44:18.729Z,98621.31
2022-12-19T18:46:46.099Z,98620.41
2022-12-19T18:49:15.059Z,98628.53
2022-12-19T18:51:42.643Z,98639.94
2022-12-19T18:54:21.032Z,98641.44
2022-12-19T18:56:48.340Z,98641.72
2022-12-19T18:59:15.465Z,98642.34
2022-12-19T19:01:44.884Z,98649.53
2022-12-19T19:04:13.274Z,98653.59
2022-12-19T19:06:46.667Z,98653.44
2022-12-19T19:09:18.247Z,98636.34
2022-12-19T19:11:45.596Z,98643.56
2022-12-19T19:14:12.791Z,98645.06
2022-12-19T19:16:40.436Z,98649.72
2022-12-19T19:19:10.664Z,98650.91
2022-12-19T19:21:38.662Z,98653.00
2022-12-19T19:24:07.422Z,98654.94
2022-12-19T19:26:34.604Z,98666.19
2022-12-19T19:29:01.665Z,98655.53
2022-12-19T19:31:31.731Z,98639.94
2022-12-19T19:34:09.908Z,98628.25
2022-12-19T19:36:57.580Z,98627.50
2022-12-19T19:39:33.614Z,98620.03
2022-12-19T19:42:01.225Z,98618.38
2022-12-19T19:44:28.761Z,98612.84
2022-12-19T19:46:55.966Z,98600.69
2022-12-19T19:49:23.333Z,98606.38
2022-12-19T19:51:50.410Z,98599.03
2022-12-19T19:54:18.197Z,98594.38
2022-12-19T19:56:45.310Z,98582.69
2022-12-19T19:59:12.382Z,98577.28
2022-12-19T20:01:39.621Z,98570.06
2022-12-19T20:04:07.092Z,98571.59
2022-12-19T20:06:34.214Z,98568.56
2022-12-19T20:09:01.320Z,98568.56
2022-12-19T20:11:28.672Z,98575.03
2022-12-19T20:13:55.759Z,98569.94
2022-12-19T20:16:22.875Z,98578.94
2022-12-19T20:18:51.294Z,98573.09
2022-12-19T20:21:19.780Z,98569.00
2022-12-19T20:23:47.286Z,98578.78
2022-12-19T20:26:16.268Z,98572.91
2022-12-19T20:28:48.901Z,98584.78
2022-12-19T20:31:21.174Z,98584.31
2022-12-19T20:33:48.904Z,98577.84
2022-12-19T20:38:48.182Z,98583.41
2022-12-19T20:41:16.107Z,98585.66
2022-12-19T20:43:43.470Z,98589.00
2022-12-19T20:46:12.904Z,98582.38
2022-12-19T20:48:40.224Z,98590.94
2022-12-19T20:51:08.016Z,98576.38
2022-12-19T20:53:36.842Z,98572.47
2022-12-19T20:56:05.507Z,98564.25
2022-12-19T20:58:33.990Z,98567.53
2022-12-19T21:01:07.983Z,98560.78
2022-12-19T21:03:36.117Z,98560.19
2022-12-19T21:06:04.185Z,98563.78
2022-12-19T21:08:31.448Z,98551.03
2022-12-19T21:10:59.990Z,98546.06
2022-12-19T21:13:27.047Z,98545.66
2022-12-19T21:15:55.038Z,98560.34
2022-12-19T21:18:22.344Z,98566.50
2022-12-19T21:20:50.077Z,98573.53
2022-12-19T21:23:17.873Z,98567.84
2022-12-19T21:25:45.060Z,98580.28
2022-12-19T21:28:12.120Z,98577.59
2022-12-19T21:30:39.243Z,98597.97
2022-12-19T21:33:06.337Z,98577.88
2022-12-19T21:35:34.432Z,98580.28
2022-12-19T21:38:02.167Z,98574.88
2022-12-19T21:40:29.255Z,98582.97
2022-12-19T21:42:56.299Z,98572.47
2022-12-19T21:45:23.340Z,98573.22
2022-12-19T21:47:50.613Z,98567.09
2022-12-19T21:50:17.921Z,98570.69
2022-12-19T21:52:45.037Z,98564.53
2022-12-19T21:55:12.148Z,98560.03
2022-12-19T21:57:40.314Z,98555.09
2022-12-19T22:00:10.124Z,98550.59
2022-12-19T22:02:37.721Z,98542.19
2022-12-19T22:05:05.712Z,98553.88
2022-12-19T22:07:33.248Z,98556.88
2022-12-19T22:10:00.806Z,98556.00
2022-12-19T22:12:27.879Z,98569.31
2022-12-19T22:14:54.950Z,98568.88
2022-12-19T22:17:22.035Z,98575.75
2022-12-19T22:19:49.092Z,98585.69
2022-12-19T22:22:16.139Z,98586.56
2022-12-19T22:24:43.235Z,98605.31
2022-12-19T22:27:10.317Z,98601.88
2022-12-19T22:29:37.397Z,98609.53
2022-12-19T22:32:04.981Z,98615.66
2022-12-19T22:34:32.182Z,98634.84
2022-12-19T22:36:59.283Z,98630.66
2022-12-19T22:39:26.519Z,98642.38
2022-12-19T22:41:53.548Z,98632.16
2022-12-19T22:44:23.046Z,98638.44
2022-12-19T22:46:50.974Z,98660.31
2022-12-19T22:49:18.313Z,98641.09
2022-12-19T22:51:45.490Z,98636.75
2022-12-19T22:54:13.523Z,98641.50
2022-12-19T22:56:41.167Z,98643.91
2022-12-19T22:59:08.950Z,98640.31
2022-12-19T23:01:38.623Z,98640.75
2022-12-19T23:04:06.914Z,98625.78
2022-12-19T23:06:36.722Z,98624.56
2022-12-19T23:09:06.058Z,98631.03
2022-12-19T23:11:38.356Z,98625.50
2022-12-19T23:14:07.354Z,98628.50
2022-12-19T23:16:34.568Z,98621.59
2022-12-19T23:19:01.698Z,98618.59
2022-12-19T23:21:28.817Z,98609.91
2022-12-19T23:23:56.281Z,98598.81
2022-12-19T23:26:29.116Z,98609.31
2022-12-19T23:28:58.700Z,98622.75
2022-12-19T23:31:26.201Z,98620.34
2022-12-19T23:33:53.869Z,98629.63
2022-12-19T23:36:45.122Z,98618.22
2022-12-19T23:39:09.983Z,98606.81
2022-12-19T23:41:37.647Z,98594.50
2022-12-19T23:44:04.952Z,98589.72
2022-12-19T23:46:32.199Z,98590.16
2022-12-19T23:48:59.494Z,98601.97
2022-12-19T23:51:27.334Z,98599.72
2022-12-19T23:53:55.610Z,98598.66
2022-12-19T23:56:28.917Z,98600.59
2022-12-19T23:58:56.417Z,98592.50
